Archbold, Ohio
Current Conditions -  °F | °C
As of 9:15 PM on Sunday 25 Jan 2015 (Local Time) from KUSE Reporting Station
Light Rain Light Rain  
Wind Chill: -15°   Ceiling: 2800
Heat Index: -7°   Visibility: 5mi
Dew Point: -11°   Wind: 16mph
Humidity: 74%   Direction: 50°NE
Pressure: 29.92"   Gusts: NA
Location:  41.52°N, 84.31°W
Report Text: KUSE 260215Z AUTO 05014KT 5SM -RA BKN028 OVC090 M07/M11 A2992 RMK AO2
Loading
Personal Weather Stations






























Interactive Weather Map New forecast layout! Learn more

10-Day Weather Forecast

Advertisements
Track Severe Weather on mobile